createdAt,value
2022-08-18T00:00:52.517Z,22.4
2022-08-18T00:01:53.355Z,22.41
2022-08-18T00:03:54.212Z,22.36
2022-08-18T00:04:58.865Z,22.37
2022-08-18T00:05:56.263Z,22.41
2022-08-18T00:06:56.162Z,22.43
2022-08-18T00:07:57.365Z,22.38
2022-08-18T00:08:58.745Z,22.34
2022-08-18T00:09:58.243Z,22.41
2022-08-18T00:10:58.263Z,22.36
2022-08-18T00:11:58.469Z,22.33
2022-08-18T00:13:04.740Z,22.33
2022-08-18T00:14:00.236Z,22.23
2022-08-18T00:15:00.158Z,22.26
2022-08-18T00:16:00.780Z,22.31
2022-08-18T00:17:01.283Z,22.36
2022-08-18T00:18:01.483Z,22.36
2022-08-18T00:19:09.333Z,22.34
2022-08-18T00:20:02.572Z,22.47
2022-08-18T00:21:03.749Z,22.49
2022-08-18T00:22:02.944Z,22.55
2022-08-18T00:23:03.541Z,22.67
2022-08-18T00:24:03.754Z,22.58
2022-08-18T00:25:04.372Z,22.73
2022-08-18T00:26:04.659Z,22.74
2022-08-18T00:27:07.956Z,22.73
2022-08-18T00:28:05.628Z,22.76
2022-08-18T00:29:06.132Z,22.78
2022-08-18T00:30:06.633Z,22.77
2022-08-18T00:31:06.534Z,22.78
2022-08-18T00:32:06.852Z,22.78
2022-08-18T00:33:06.859Z,22.81
2022-08-18T00:34:07.758Z,22.78
2022-08-18T00:35:07.992Z,22.95
2022-08-18T00:36:08.487Z,22.99
2022-08-18T00:37:08.685Z,23.08
2022-08-18T00:38:25.124Z,22.96
2022-08-18T00:39:09.747Z,23.13
2022-08-18T00:40:10.212Z,23.08
2022-08-18T00:41:10.653Z,23.11
2022-08-18T00:42:10.592Z,23.17
2022-08-18T00:43:15.215Z,23.14
2022-08-18T00:44:15.439Z,23.16
2022-08-18T00:45:16.145Z,23.14
2022-08-18T00:46:16.548Z,23.14
2022-08-18T00:47:43.271Z,23.08
2022-08-18T00:48:18.995Z,23.18
2022-08-18T00:49:18.669Z,22.98
2022-08-18T00:50:20.948Z,22.88
2022-08-18T00:51:19.868Z,22.84
2022-08-18T00:52:20.816Z,22.78
2022-08-18T00:53:21.823Z,22.76
2022-08-18T00:54:21.738Z,22.67
2022-08-18T00:55:22.177Z,22.56
2022-08-18T00:56:22.822Z,22.49
2022-08-18T00:57:24.010Z,22.4
2022-08-18T00:58:24.210Z,22.26
2022-08-18T00:59:24.138Z,22.26
2022-08-18T01:00:24.331Z,22.1
2022-08-18T01:01:25.035Z,22.15
2022-08-18T01:02:25.495Z,21.84
2022-08-18T01:03:30.993Z,21.91
2022-08-18T01:04:26.637Z,21.8
2022-08-18T01:05:27.801Z,21.75
2022-08-18T01:06:27.722Z,21.78
2022-08-18T01:07:28.329Z,21.63
2022-08-18T01:08:35.390Z,21.63
2022-08-18T01:09:29.731Z,21.59
2022-08-18T01:10:29.796Z,21.56
2022-08-18T01:11:30.413Z,21.48
2022-08-18T01:12:51.916Z,21.4
2022-08-18T01:13:39.654Z,21.47
2022-08-18T01:14:39.854Z,21.38
2022-08-18T01:15:40.755Z,21.3
2022-08-18T01:16:57.909Z,21.26
2022-08-18T01:17:41.215Z,21.26
2022-08-18T01:18:41.663Z,21.22
2022-08-18T01:19:42.587Z,21.19
2022-08-18T01:20:43.512Z,21.17
2022-08-18T01:21:43.408Z,21.13
2022-08-18T01:22:43.623Z,21.15
2022-08-18T01:23:44.636Z,21.1
2022-08-18T01:24:44.855Z,21.13
2022-08-18T01:25:46.069Z,21.07
2022-08-18T01:26:51.186Z,21.05
2022-08-18T01:27:46.869Z,21.05
2022-08-18T01:28:46.916Z,21.01
2022-08-18T01:29:49.297Z,21.05
2022-08-18T01:30:48.498Z,20.93
2022-08-18T01:32:00.495Z,20.89
2022-08-18T01:32:49.701Z,20.95
2022-08-18T01:33:49.936Z,20.98
2022-08-18T01:34:50.850Z,20.96
2022-08-18T01:35:51.770Z,20.92
2022-08-18T01:36:53.456Z,20.92
2022-08-18T01:37:53.098Z,20.93
2022-08-18T01:38:53.438Z,20.96
2022-08-18T01:41:32.330Z,20.78
2022-08-18T01:41:49.544Z,20.88
2022-08-18T01:42:49.605Z,20.82
2022-08-18T01:43:50.939Z,20.85
2022-08-18T01:44:50.946Z,20.78
2022-08-18T01:45:51.399Z,20.75
2022-08-18T01:46:51.898Z,20.63
2022-08-18T01:47:53.529Z,20.63
2022-08-18T01:48:53.418Z,20.64
2022-08-18T01:49:54.039Z,20.56
2022-08-18T01:50:54.237Z,20.55
2022-08-18T01:51:54.860Z,20.5
2022-08-18T01:52:55.572Z,20.39
2022-08-18T01:53:56.065Z,20.29
2022-08-18T01:54:56.374Z,20.37
2022-08-18T01:55:56.239Z,20.22
2022-08-18T01:56:57.161Z,20.14
2022-08-18T01:57:58.398Z,20.17
2022-08-18T01:59:01.242Z,20.03
2022-08-18T01:59:59.743Z,19.97
2022-08-18T02:01:00.192Z,19.97
2022-08-18T02:02:00.754Z,19.96
2022-08-18T02:03:07.846Z,19.92
2022-08-18T02:04:37.476Z,19.89
2022-08-18T02:05:25.090Z,19.94
2022-08-18T02:06:39.769Z,19.87
2022-08-18T02:07:36.853Z,19.75
2022-08-18T02:08:29.337Z,19.77
2022-08-18T02:09:30.052Z,19.74
2022-08-18T02:10:27.472Z,19.63
2022-08-18T02:11:28.408Z,19.59
2022-08-18T02:12:28.696Z,19.57
2022-08-18T02:13:29.200Z,19.55
2022-08-18T02:14:33.011Z,19.52
2022-08-18T02:15:30.076Z,19.52
2022-08-18T02:16:31.070Z,19.56
2022-08-18T02:17:31.284Z,19.47
2022-08-18T02:18:53.942Z,19.45
2022-08-18T02:19:32.852Z,19.44
2022-08-18T02:20:33.757Z,19.38
2022-08-18T02:21:34.458Z,19.34
2022-08-18T02:22:34.376Z,19.35
2022-08-18T02:23:35.295Z,19.37
2022-08-18T02:24:35.971Z,19.34
2022-08-18T02:25:35.952Z,19.45
2022-08-18T02:26:36.301Z,19.45
2022-08-18T02:27:38.925Z,19.37
2022-08-18T02:28:38.687Z,19.38
2022-08-18T02:29:39.146Z,19.38
2022-08-18T02:30:40.640Z,19.37
2022-08-18T02:31:41.270Z,19.27
2022-08-18T02:32:42.465Z,19.3
2022-08-18T02:33:52.764Z,19.26
2022-08-18T02:34:43.089Z,19.26
2022-08-18T02:35:45.351Z,19.29
2022-08-18T02:36:44.550Z,19.3
2022-08-18T02:37:56.321Z,19.3
2022-08-18T02:39:00.253Z,19.3
2022-08-18T02:39:47.104Z,19.3
2022-08-18T02:40:47.918Z,19.3
2022-08-18T02:41:49.141Z,19.34
2022-08-18T02:42:49.352Z,19.42
2022-08-18T02:43:49.850Z,19.39
2022-08-18T02:44:50.349Z,19.34
2022-08-18T02:45:51.072Z,19.32
2022-08-18T02:46:51.268Z,19.35
2022-08-18T02:47:51.828Z,19.35
2022-08-18T02:48:52.436Z,19.41
2022-08-18T02:52:55.170Z,19.41
2022-08-18T02:53:59.924Z,19.42
2022-08-18T02:54:56.141Z,19.47
2022-08-18T02:55:56.890Z,19.47
2022-08-18T02:56:57.812Z,19.53
2022-08-18T02:57:57.677Z,19.48
2022-08-18T02:58:58.309Z,19.41
2022-08-18T03:00:00.025Z,19.44
2022-08-18T03:01:00.437Z,19.45
2022-08-18T03:02:01.014Z,19.44
2022-08-18T03:03:01.758Z,19.45
2022-08-18T03:04:02.393Z,19.47
2022-08-18T03:05:02.365Z,19.37
2022-08-18T03:06:04.561Z,19.32
2022-08-18T03:12:07.123Z,18.97
2022-08-18T03:13:07.058Z,18.91
2022-08-18T03:14:11.868Z,18.91
2022-08-18T03:15:08.560Z,18.89
2022-08-18T03:18:13.085Z,19.39
2022-08-18T03:19:13.562Z,19.52
2022-08-18T03:20:14.660Z,19.41
2022-08-18T03:21:15.560Z,19.42
2022-08-18T03:22:34.700Z,19.45
2022-08-18T03:23:15.801Z,19.47
2022-08-18T03:24:23.665Z,19.32
2022-08-18T03:25:17.033Z,19.34
2022-08-18T03:26:17.627Z,19.37
2022-08-18T03:27:18.547Z,19.32
2022-08-18T03:28:18.745Z,19.3
2022-08-18T03:29:19.023Z,19.37
2022-08-18T03:30:20.029Z,19.3
2022-08-18T03:31:20.248Z,19.24
2022-08-18T03:32:21.546Z,19.26
2022-08-18T03:33:21.651Z,19.22
2022-08-18T03:34:21.550Z,19.15
2022-08-18T03:35:21.769Z,19.07
2022-08-18T03:36:22.419Z,19.09
2022-08-18T03:37:22.909Z,19
2022-08-18T03:38:23.119Z,18.96
2022-08-18T03:39:23.750Z,19.05
2022-08-18T03:40:24.050Z,18.91
2022-08-18T03:42:04.907Z,18.91
2022-08-18T03:42:25.527Z,18.86
2022-08-18T03:43:55.975Z,18.79
2022-08-18T03:44:26.899Z,18.83
2022-08-18T03:45:27.092Z,18.81
2022-08-18T03:46:27.590Z,18.74
2022-08-18T03:47:27.935Z,18.73
2022-08-18T03:48:28.157Z,18.82
2022-08-18T03:49:29.191Z,18.67
2022-08-18T03:50:29.847Z,18.71
2022-08-18T03:51:31.041Z,18.68
2022-08-18T03:52:30.655Z,18.7
2022-08-18T03:53:31.443Z,18.66
2022-08-18T03:54:31.663Z,18.6
2022-08-18T03:55:31.287Z,18.55
2022-08-18T03:56:31.919Z,18.53
2022-08-18T03:57:39.519Z,18.57
2022-08-18T03:58:33.915Z,18.49
2022-08-18T03:59:34.368Z,18.49
2022-08-18T04:00:34.865Z,18.49
2022-08-18T04:01:35.305Z,18.53
2022-08-18T04:02:35.907Z,18.52
2022-08-18T04:03:36.108Z,18.41
2022-08-18T04:04:43.425Z,18.53
2022-08-18T04:05:37.159Z,18.52
2022-08-18T04:06:37.654Z,18.39
2022-08-18T04:07:37.848Z,18.46
2022-08-18T04:08:38.629Z,18.49
2022-08-18T04:09:39.912Z,18.41
2022-08-18T04:10:40.811Z,18.48
2022-08-18T04:11:43.732Z,18.49
2022-08-18T04:12:41.857Z,18.43
2022-08-18T04:13:42.362Z,18.45
2022-08-18T04:14:42.858Z,18.43
2022-08-18T04:15:43.052Z,18.48
2022-08-18T04:16:43.555Z,18.42
2022-08-18T04:18:10.455Z,18.36
2022-08-18T04:18:44.735Z,18.43
2022-08-18T04:19:46.077Z,18.36
2022-08-18T04:21:05.831Z,18.3
2022-08-18T04:22:47.952Z,18.26
2022-08-18T04:23:49.834Z,18.24
2022-08-18T04:24:51.404Z,18.27
2022-08-18T04:25:49.550Z,18.3
2022-08-18T04:54:07.938Z,18.58
2022-08-18T04:55:07.847Z,18.58
2022-08-18T04:56:09.047Z,18.6
2022-08-18T04:57:09.174Z,18.64
2022-08-18T04:58:09.671Z,18.6
2022-08-18T04:59:10.295Z,18.6
2022-08-18T05:00:10.709Z,18.66
2022-08-18T05:01:11.175Z,18.6
2022-08-18T05:02:15.120Z,18.64
2022-08-18T05:03:12.333Z,18.57
2022-08-18T05:04:13.237Z,18.68
2022-08-18T05:05:13.450Z,18.66
2022-08-18T05:06:15.567Z,18.71
2022-08-18T05:07:15.207Z,18.68
2022-08-18T05:08:15.069Z,18.73
2022-08-18T05:09:22.879Z,18.71
2022-08-18T05:10:18.658Z,18.78
2022-08-18T05:11:19.577Z,18.78
2022-08-18T05:12:26.203Z,18.76
2022-08-18T05:13:20.809Z,18.82
2022-08-18T05:14:21.004Z,18.73
2022-08-18T05:15:21.503Z,18.85
2022-08-18T05:16:35.365Z,18.89
2022-08-18T05:17:24.495Z,18.88
2022-08-18T05:18:26.915Z,18.86
2022-08-18T05:19:27.269Z,18.86
2022-08-18T05:20:26.691Z,18.94
2022-08-18T05:21:26.304Z,18.88
2022-08-18T05:22:35.454Z,19.04
2022-08-18T05:23:29.266Z,18.96
2022-08-18T05:24:36.863Z,18.96
2022-08-18T05:25:28.100Z,18.97
2022-08-18T05:26:28.296Z,19
2022-08-18T05:27:29.517Z,19.08
2022-08-18T05:28:29.436Z,19.15
2022-08-18T05:29:32.368Z,19.11
2022-08-18T05:30:30.690Z,19.07
2022-08-18T05:31:31.932Z,19.19
2022-08-18T05:32:52.078Z,19.16
2022-08-18T05:33:32.276Z,19.19
2022-08-18T05:34:32.773Z,19.19
2022-08-18T05:35:32.691Z,19.24
2022-08-18T05:36:33.612Z,19.24
2022-08-18T05:37:36.367Z,19.32
2022-08-18T05:38:34.357Z,19.27
2022-08-18T05:39:35.819Z,19.23
2022-08-18T05:40:36.189Z,19.29
2022-08-18T05:41:36.385Z,19.27
2022-08-18T05:42:37.592Z,19.3
2022-08-18T05:43:52.516Z,19.35
2022-08-18T05:44:38.814Z,19.32
2022-08-18T05:45:39.734Z,19.35
2022-08-18T05:46:39.940Z,19.3
2022-08-18T05:47:40.441Z,19.38
2022-08-18T05:48:45.179Z,19.32
2022-08-18T05:49:41.375Z,19.35
2022-08-18T05:50:42.149Z,19.41
2022-08-18T05:51:42.650Z,19.47
2022-08-18T05:52:42.854Z,19.35
2022-08-18T05:53:44.340Z,19.45
2022-08-18T05:54:42.963Z,19.42
2022-08-18T05:55:48.331Z,19.44
2022-08-18T05:56:44.982Z,19.42
2022-08-18T05:57:45.268Z,19.49
2022-08-18T05:58:45.460Z,19.42
2022-08-18T05:59:48.546Z,19.39
2022-08-18T06:00:46.281Z,19.45
2022-08-18T06:01:47.926Z,19.44
2022-08-18T06:02:48.021Z,19.57
2022-08-18T06:03:52.492Z,19.47
2022-08-18T06:04:48.986Z,19.57
2022-08-18T06:05:49.603Z,19.67
2022-08-18T06:06:53.032Z,19.64
2022-08-18T06:07:51.176Z,19.7
2022-08-18T06:08:51.785Z,19.66
2022-08-18T06:09:52.124Z,19.78
2022-08-18T06:10:52.715Z,19.72
2022-08-18T06:11:52.937Z,19.78
2022-08-18T06:12:53.588Z,19.78
2022-08-18T06:14:00.276Z,19.77
2022-08-18T06:14:54.568Z,19.81
2022-08-18T06:15:54.889Z,19.81
2022-08-18T06:16:55.117Z,19.75
2022-08-18T06:17:55.467Z,19.81
2022-08-18T06:18:55.371Z,19.79
2022-08-18T06:19:56.294Z,19.75
2022-08-18T06:20:56.587Z,19.82
2022-08-18T06:21:57.208Z,19.74
2022-08-18T06:23:01.131Z,19.94
2022-08-18T06:23:58.533Z,19.85
2022-08-18T06:24:59.492Z,19.89
2022-08-18T06:26:00.707Z,19.89
2022-08-18T06:27:01.637Z,19.87
2022-08-18T06:28:01.952Z,19.87
2022-08-18T06:29:03.179Z,19.94
2022-08-18T06:30:02.825Z,19.9
2022-08-18T06:31:03.260Z,19.85
2022-08-18T06:32:03.760Z,19.94
2022-08-18T06:33:03.676Z,19.96
2022-08-18T06:34:05.023Z,19.96
2022-08-18T06:35:05.948Z,19.99
2022-08-18T06:36:06.869Z,20.03
2022-08-18T06:37:08.011Z,20.02
2022-08-18T06:38:08.647Z,20.03
2022-08-18T06:39:09.151Z,20.03
2022-08-18T06:40:10.056Z,20.1
2022-08-18T06:41:43.387Z,20.15
2022-08-18T06:42:11.214Z,20.14
2022-08-18T06:43:11.418Z,20.14
2022-08-18T06:44:11.329Z,20.11
2022-08-18T06:45:12.251Z,20.17
2022-08-18T06:46:12.417Z,20.14
2022-08-18T06:47:12.347Z,20.18
2022-08-18T06:48:21.403Z,20.17
2022-08-18T06:49:14.637Z,20.18
2022-08-18T06:50:15.356Z,20.21
2022-08-18T06:51:15.922Z,20.17
2022-08-18T06:52:16.422Z,20.18
2022-08-18T06:53:33.772Z,20.19
2022-08-18T06:54:16.699Z,20.15
2022-08-18T06:55:17.195Z,20.15
2022-08-18T06:56:32.136Z,20.11
2022-08-18T06:57:17.744Z,20.08
2022-08-18T06:58:18.398Z,20.07
2022-08-18T06:59:19.598Z,20.04
2022-08-18T07:00:20.243Z,20.02
2022-08-18T07:01:22.171Z,20.03
2022-08-18T07:02:21.885Z,20.07
2022-08-18T07:03:21.883Z,20.07
2022-08-18T07:04:22.809Z,20.11
2022-08-18T07:05:24.028Z,20.18
2022-08-18T07:06:24.252Z,20.26
2022-08-18T07:07:26.646Z,20.17
2022-08-18T07:08:24.811Z,20.14
2022-08-18T07:09:25.210Z,20.15
2022-08-18T07:10:25.855Z,20.12
2022-08-18T07:11:26.310Z,20.26
2022-08-18T07:12:33.226Z,20.19
2022-08-18T07:13:28.408Z,20.3
2022-08-18T07:14:28.842Z,20.27
2022-08-18T07:15:29.760Z,20.27
2022-08-18T07:17:00.259Z,20.4
2022-08-18T07:17:49.877Z,20.42
2022-08-18T07:18:31.800Z,20.4
2022-08-18T07:19:32.732Z,20.37
2022-08-18T07:20:32.933Z,20.36
2022-08-18T07:21:33.961Z,20.36
2022-08-18T07:22:51.461Z,20.27
2022-08-18T07:23:35.130Z,20.3
2022-08-18T07:24:34.988Z,20.36
2022-08-18T07:25:35.620Z,20.29
2022-08-18T07:26:36.612Z,20.27
2022-08-18T07:27:37.134Z,20.29
2022-08-18T07:28:38.229Z,20.32
2022-08-18T07:29:39.016Z,20.27
2022-08-18T07:31:16.285Z,20.21
2022-08-18T07:32:04.079Z,20.17
2022-08-18T07:33:05.219Z,20.15
2022-08-18T07:34:05.836Z,20.07
2022-08-18T07:35:06.335Z,20
2022-08-18T07:36:07.301Z,19.96
2022-08-18T07:37:07.497Z,20
2022-08-18T07:38:43.957Z,19.94
2022-08-18T07:39:08.717Z,19.94
2022-08-18T07:40:09.603Z,19.96
2022-08-18T07:41:09.442Z,19.87
2022-08-18T07:42:11.043Z,19.99
2022-08-18T07:43:11.663Z,20.03
2022-08-18T07:44:18.635Z,19.94
2022-08-18T07:45:12.463Z,19.92
2022-08-18T07:46:13.326Z,19.87
2022-08-18T07:47:13.552Z,19.79
2022-08-18T07:48:40.957Z,19.81
2022-08-18T07:49:19.266Z,19.82
2022-08-18T07:51:00.122Z,19.82
2022-08-18T07:51:23.507Z,19.89
2022-08-18T07:52:54.990Z,19.97
2022-08-18T07:54:01.060Z,20.02
2022-08-18T07:54:56.151Z,20.04
2022-08-18T07:55:55.255Z,20.11
2022-08-18T07:56:55.889Z,20.04
2022-08-18T07:57:56.880Z,20
2022-08-18T07:58:57.230Z,20.21
2022-08-18T07:59:57.833Z,20.18
2022-08-18T08:01:05.028Z,20.08
2022-08-18T08:01:59.565Z,20.04
2022-08-18T08:03:00.517Z,20.12
2022-08-18T08:04:00.720Z,20.1
2022-08-18T08:05:01.541Z,20.02
2022-08-18T08:06:01.754Z,20.08
2022-08-18T08:07:29.080Z,20.1
2022-08-18T08:08:04.095Z,20.15
2022-08-18T08:09:03.621Z,20.14
2022-08-18T08:10:04.550Z,20.18
2022-08-18T08:11:05.047Z,20.22
2022-08-18T08:12:05.058Z,20.1
2022-08-18T08:13:37.236Z,20.11
2022-08-18T08:14:08.618Z,20.11
2022-08-18T08:15:09.803Z,20.14
2022-08-18T08:16:10.540Z,20.19
2022-08-18T08:17:10.465Z,20.24
2022-08-18T08:18:11.959Z,20.18
2022-08-18T08:19:24.629Z,20.19
2022-08-18T08:20:13.993Z,20.21
2022-08-18T08:21:15.045Z,20.21
2022-08-18T08:22:14.988Z,20.27
2022-08-18T08:23:15.710Z,20.3
2022-08-18T08:24:18.876Z,20.3
2022-08-18T08:25:50.286Z,20.19
2022-08-18T08:26:18.509Z,20.27
2022-08-18T08:27:19.438Z,20.32
2022-08-18T08:28:19.639Z,20.39
2022-08-18T08:29:20.547Z,20.39
2022-08-18T08:30:20.638Z,20.42
2022-08-18T08:31:43.325Z,20.37
2022-08-18T08:32:21.970Z,20.39
2022-08-18T08:33:23.423Z,20.4
2022-08-18T08:34:23.324Z,20.39
2022-08-18T08:35:55.435Z,20.39
2022-08-18T08:36:24.657Z,20.4
2022-08-18T08:37:24.879Z,20.53
2022-08-18T08:38:48.457Z,20.52
2022-08-18T08:39:26.371Z,20.63
2022-08-18T08:40:27.665Z,20.63
2022-08-18T08:41:28.233Z,20.66
2022-08-18T08:42:40.701Z,20.7
2022-08-18T08:43:28.743Z,20.77
2022-08-18T08:44:28.988Z,20.74
2022-08-18T08:45:29.681Z,20.88
2022-08-18T08:46:30.609Z,21.01
2022-08-18T08:47:31.107Z,20.93
2022-08-18T08:48:31.311Z,20.98
2022-08-18T08:49:32.242Z,20.96
2022-08-18T08:50:31.870Z,21.03
2022-08-18T08:51:36.239Z,21.08
2022-08-18T08:52:33.401Z,21.28
2022-08-18T08:53:33.447Z,21.37
2022-08-18T08:54:34.822Z,21.53
2022-08-18T08:55:35.735Z,21.68
2022-08-18T08:56:36.957Z,21.66
2022-08-18T08:57:36.905Z,21.81
2022-08-18T08:58:39.448Z,21.85
2022-08-18T08:59:40.724Z,22.06
2022-08-18T09:00:39.669Z,22.15
2022-08-18T09:01:39.949Z,22.21
2022-08-18T09:02:54.064Z,22.36
2022-08-18T09:03:42.095Z,22.53
2022-08-18T09:05:09.815Z,22.62
2022-08-18T09:05:43.256Z,22.67
2022-08-18T09:06:43.463Z,22.84
2022-08-18T09:07:44.086Z,22.8
2022-08-18T09:08:45.109Z,22.91
2022-08-18T09:10:46.322Z,23.1
2022-08-18T09:11:46.980Z,23.47
2022-08-18T09:12:48.099Z,24.06
2022-08-18T09:13:49.020Z,24.61
2022-08-18T09:14:49.681Z,25.07
2022-08-18T09:15:50.723Z,25.67
2022-08-18T09:16:53.990Z,25.98
2022-08-18T09:17:51.927Z,26.11
2022-08-18T09:18:53.137Z,26.3
2022-08-18T09:19:53.777Z,26.52
2022-08-18T09:20:55.289Z,26.55
2022-08-18T09:21:55.522Z,26.51
2022-08-18T09:22:56.983Z,26.42
2022-08-18T09:23:56.998Z,26.48
2022-08-18T09:24:58.184Z,26.88
2022-08-18T09:25:58.416Z,27.11
2022-08-18T09:26:58.404Z,27.16
2022-08-18T09:28:16.721Z,26.98
2022-08-18T09:28:59.670Z,27.08
2022-08-18T09:29:59.868Z,27.2
2022-08-18T09:31:00.486Z,27.15
2022-08-18T09:32:01.270Z,26.78
2022-08-18T09:33:01.623Z,26.34
2022-08-18T09:34:11.278Z,25.88
2022-08-18T09:35:06.550Z,25.62
2022-08-18T09:36:10.277Z,25.68
2022-08-18T09:39:09.309Z,25.96
2022-08-18T09:43:20.462Z,25.43
2022-08-18T09:46:18.031Z,25.56
2022-08-18T09:47:30.628Z,25.68
2022-08-18T09:48:34.367Z,25.43
2022-08-18T09:49:30.237Z,25.24
2022-08-18T09:50:46.135Z,25.18
2022-08-18T09:51:51.647Z,25.04
2022-08-18T09:52:46.605Z,24.84
2022-08-18T09:53:46.491Z,24.78
2022-08-18T09:54:46.703Z,24.59
2022-08-18T09:56:05.212Z,24.62
2022-08-18T09:57:01.422Z,24.5
2022-08-18T09:57:52.055Z,24.43
2022-08-18T09:58:55.834Z,24.31
2022-08-18T09:59:55.128Z,24.18
2022-08-18T10:00:57.361Z,24.14
2022-08-18T10:01:59.183Z,24.1
2022-08-18T10:02:56.150Z,24.06
2022-08-18T10:03:55.633Z,24.06
2022-08-18T10:04:56.459Z,23.99
2022-08-18T10:06:00.011Z,23.88
2022-08-18T10:07:00.435Z,23.95
2022-08-18T10:07:59.191Z,23.99
2022-08-18T10:09:00.423Z,23.92
2022-08-18T10:10:01.011Z,23.89
2022-08-18T10:13:04.905Z,23.82
2022-08-18T10:14:04.875Z,23.85
2022-08-18T10:15:05.694Z,23.79
2022-08-18T10:16:17.207Z,23.79
2022-08-18T10:20:27.175Z,23.64
2022-08-18T10:21:14.791Z,23.7
2022-08-18T10:22:16.519Z,23.62
2022-08-18T10:23:15.427Z,23.67
2022-08-18T10:24:46.031Z,23.79
2022-08-18T10:25:28.379Z,23.71
2022-08-18T10:26:20.814Z,23.77
2022-08-18T10:27:19.222Z,23.85
2022-08-18T10:28:19.103Z,23.92
2022-08-18T10:29:22.427Z,23.94
2022-08-18T10:30:21.638Z,24.09
2022-08-18T10:33:26.246Z,24.43
2022-08-18T10:34:25.627Z,24.66
2022-08-18T10:35:33.239Z,25
2022-08-18T10:36:28.828Z,25.22
2022-08-18T10:39:29.493Z,25.95
2022-08-18T10:42:37.909Z,26.39
2022-08-18T10:47:12.828Z,26.86
2022-08-18T10:48:27.071Z,26.81
2022-08-18T10:54:54.205Z,26.71
2022-08-18T10:55:56.901Z,26.7
2022-08-18T10:56:58.340Z,26.41
2022-08-18T10:57:58.114Z,26.19
2022-08-18T10:58:58.625Z,26.06
2022-08-18T11:00:00.646Z,25.99
2022-08-18T11:01:01.308Z,25.85
2022-08-18T11:02:00.490Z,25.66
2022-08-18T11:03:55.425Z,25.68
2022-08-18T11:04:45.256Z,25.44
2022-08-18T11:05:42.269Z,25.46
2022-08-18T11:06:42.583Z,25.54
2022-08-18T11:07:45.924Z,25.43
2022-08-18T11:11:42.282Z,24.96
2022-08-18T11:12:42.338Z,24.86
2022-08-18T11:13:42.391Z,24.85
2022-08-18T11:14:43.258Z,24.81
2022-08-18T11:15:44.510Z,24.89
2022-08-18T11:16:47.538Z,24.92
2022-08-18T11:17:46.632Z,25.06
2022-08-18T11:18:49.806Z,25.15
2022-08-18T11:19:50.948Z,25.33
2022-08-18T11:20:49.225Z,25.15
2022-08-18T11:21:52.130Z,25.07
2022-08-18T11:24:52.173Z,25.12
2022-08-18T11:25:54.731Z,25.04
2022-08-18T11:26:59.199Z,24.84
2022-08-18T11:27:54.391Z,24.71
2022-08-18T11:28:55.088Z,24.61
2022-08-18T11:29:55.201Z,24.59
2022-08-18T11:30:55.203Z,24.61
2022-08-18T11:35:00.029Z,24.74
2022-08-18T11:36:01.843Z,24.77
2022-08-18T11:37:01.606Z,24.68
2022-08-18T11:38:02.095Z,24.58
2022-08-18T11:39:05.337Z,24.62
2022-08-18T11:40:04.364Z,24.58
2022-08-18T11:44:20.085Z,24.13
2022-08-18T11:45:25.263Z,24
2022-08-18T11:49:33.804Z,23.92
2022-08-18T11:50:25.945Z,24.04
2022-08-18T11:51:29.373Z,23.99
2022-08-18T11:55:30.789Z,24.04
2022-08-18T11:58:39.369Z,24.07
2022-08-18T12:00:01.758Z,24.07
2022-08-18T12:00:43.906Z,24.06
2022-08-18T12:01:42.904Z,23.91
2022-08-18T12:02:37.090Z,23.95
2022-08-18T12:03:38.033Z,23.89
2022-08-18T12:04:38.870Z,23.86
2022-08-18T12:05:59.676Z,23.92
2022-08-18T12:06:43.640Z,23.96
2022-08-18T12:10:44.336Z,24.41
2022-08-18T12:12:05.154Z,24.56
2022-08-18T12:13:07.198Z,24.55
2022-08-18T12:14:35.116Z,24.62
2022-08-18T12:17:08.714Z,24.85
2022-08-18T12:18:08.553Z,24.86
2022-08-18T12:19:12.631Z,25
2022-08-18T12:20:12.461Z,25.03
2022-08-18T12:21:11.944Z,25.15
2022-08-18T12:22:18.219Z,25.16
2022-08-18T12:23:13.217Z,25.29
2022-08-18T12:24:14.349Z,25.4
2022-08-18T12:25:25.937Z,25.54
2022-08-18T12:26:43.358Z,25.59
2022-08-18T12:30:23.609Z,25.76
2022-08-18T12:33:34.284Z,25.73
2022-08-18T12:34:52.543Z,25.54
2022-08-18T12:38:19.400Z,25.29
2022-08-18T12:39:11.399Z,25.29
2022-08-18T12:40:09.346Z,25.3
2022-08-18T12:44:20.329Z,25.33
2022-08-18T12:45:14.794Z,25.26
2022-08-18T12:46:17.973Z,25.34
2022-08-18T12:47:14.823Z,25.33
2022-08-18T12:48:16.654Z,25.31
2022-08-18T12:49:16.152Z,25.22
2022-08-18T12:50:16.651Z,25.22
2022-08-18T12:53:58.703Z,25.22
2022-08-18T12:55:03.531Z,25.16
2022-08-18T12:56:03.107Z,25.25
2022-08-18T12:57:07.303Z,25.21
2022-08-18T12:58:05.411Z,25.25
2022-08-18T12:59:05.795Z,25.15
2022-08-18T13:00:08.141Z,25.11
2022-08-18T13:01:10.895Z,24.88
2022-08-18T13:02:06.708Z,24.85
2022-08-18T13:03:08.871Z,24.77
2022-08-18T13:04:19.307Z,24.61
2022-08-18T13:05:14.462Z,24.69
2022-08-18T13:06:17.120Z,24.62
2022-08-18T13:07:19.536Z,24.66
2022-08-18T13:08:38.228Z,24.53
2022-08-18T13:09:54.474Z,24.58
2022-08-18T13:10:58.567Z,24.5
2022-08-18T13:11:34.567Z,24.41
2022-08-18T13:12:30.967Z,24.47
2022-08-18T13:14:33.143Z,24.41
2022-08-18T13:15:33.285Z,24.5
2022-08-18T13:16:55.435Z,24.47
2022-08-18T13:17:44.774Z,24.5
2022-08-18T13:18:36.037Z,24.43
2022-08-18T13:19:40.007Z,24.53
2022-08-18T13:20:37.039Z,24.46
2022-08-18T13:21:47.253Z,24.51
2022-08-18T13:22:39.096Z,24.53
2022-08-18T13:23:37.516Z,24.63
2022-08-18T13:24:38.998Z,24.63
2022-08-18T13:25:47.468Z,24.74
2022-08-18T13:26:38.709Z,24.61
2022-08-18T13:27:45.796Z,24.59
2022-08-18T13:29:02.510Z,24.55
2022-08-18T13:29:42.607Z,24.56
2022-08-18T13:30:41.328Z,24.61
2022-08-18T13:31:57.400Z,24.63
2022-08-18T13:33:56.513Z,24.51
2022-08-18T13:34:30.819Z,24.51
2022-08-18T13:35:38.560Z,24.68
2022-08-18T13:36:38.748Z,24.58
2022-08-18T13:37:39.768Z,24.61
2022-08-18T13:38:37.672Z,24.55
2022-08-18T13:39:44.456Z,24.62
2022-08-18T13:40:47.332Z,24.62
2022-08-18T13:41:40.268Z,24.66
2022-08-18T13:42:57.331Z,24.66
2022-08-18T13:43:42.425Z,24.59
2022-08-18T13:44:53.615Z,24.55
2022-08-18T13:45:42.739Z,24.71
2022-08-18T13:46:42.635Z,24.53
2022-08-18T13:47:45.092Z,24.59
2022-08-18T13:48:44.639Z,24.53
2022-08-18T13:49:59.338Z,24.62
2022-08-18T13:50:45.877Z,24.55
2022-08-18T13:51:50.991Z,24.66
2022-08-18T13:52:50.597Z,24.56
2022-08-18T13:54:32.002Z,24.55
2022-08-18T13:55:00.862Z,24.58
2022-08-18T13:55:59.757Z,24.61
2022-08-18T13:56:59.610Z,24.59
2022-08-18T13:58:02.426Z,24.55
2022-08-18T13:59:01.233Z,24.56
2022-08-18T14:00:01.286Z,24.51
2022-08-18T14:01:52.859Z,24.56
2022-08-18T14:02:11.141Z,24.61
2022-08-18T14:03:11.608Z,24.55
2022-08-18T14:04:21.183Z,24.51
2022-08-18T14:05:14.112Z,24.4
2022-08-18T14:06:14.417Z,24.46
2022-08-18T14:07:19.228Z,24.44
2022-08-18T14:08:19.866Z,24.4
2022-08-18T14:09:37.966Z,24.36
2022-08-18T14:10:18.737Z,24.32
2022-08-18T14:11:17.029Z,24.29
2022-08-18T14:12:33.740Z,24.28
2022-08-18T14:13:44.249Z,24.29
2022-08-18T14:14:21.360Z,24.36
2022-08-18T14:15:20.120Z,24.34
2022-08-18T14:16:27.486Z,24.31
2022-08-18T14:17:22.886Z,24.34
2022-08-18T14:18:30.719Z,24.31
2022-08-18T14:19:23.428Z,24.31
2022-08-18T14:20:28.312Z,24.37
2022-08-18T14:21:29.615Z,24.31
2022-08-18T14:22:25.969Z,24.36
2022-08-18T14:23:33.904Z,24.31
2022-08-18T14:24:30.946Z,24.28
2022-08-18T14:25:29.027Z,24.31
2022-08-18T14:26:29.619Z,24.31
2022-08-18T14:27:35.704Z,24.31
2022-08-18T14:28:31.240Z,24.36
2022-08-18T14:29:52.054Z,24.31
2022-08-18T14:30:29.929Z,24.34
2022-08-18T14:31:34.697Z,24.34
2022-08-18T14:32:36.780Z,24.26
2022-08-18T14:34:04.666Z,24.21
2022-08-18T14:34:34.598Z,24.21
2022-08-18T14:36:11.435Z,24.16
2022-08-18T14:36:37.050Z,24.13
2022-08-18T14:37:39.862Z,24.14
2022-08-18T14:38:39.973Z,24.04
2022-08-18T14:39:40.661Z,24.04
2022-08-18T14:40:43.416Z,23.94
2022-08-18T14:41:54.983Z,23.94
2022-08-18T14:42:55.687Z,23.85
2022-08-18T14:44:30.389Z,23.77
2022-08-18T14:45:26.843Z,23.69
2022-08-18T14:45:58.631Z,23.64
2022-08-18T14:46:59.628Z,23.66
2022-08-18T14:47:57.911Z,23.67
2022-08-18T14:48:56.381Z,23.62
2022-08-18T14:49:57.399Z,23.64
2022-08-18T14:50:58.128Z,23.56
2022-08-18T14:51:57.597Z,23.48
2022-08-18T14:52:59.344Z,23.49
2022-08-18T14:54:01.530Z,23.4
2022-08-18T14:55:00.599Z,23.37
2022-08-18T14:55:59.820Z,23.33
2022-08-18T14:57:00.307Z,23.42